createdAt,value
2023-03-26T00:00:15.666Z,6.61
2023-03-26T00:01:05.891Z,6.57
2023-03-26T00:01:52.952Z,6.50
2023-03-26T00:02:40.087Z,6.54
2023-03-26T00:03:28.016Z,6.58
2023-03-26T00:04:14.930Z,6.60
2023-03-26T00:05:01.928Z,6.64
2023-03-26T00:05:49.076Z,6.67
2023-03-26T00:06:39.848Z,6.64
2023-03-26T00:07:28.157Z,6.58
2023-03-26T00:08:17.208Z,6.57
2023-03-26T00:09:05.324Z,6.53
2023-03-26T00:09:53.248Z,6.60
2023-03-26T00:10:41.043Z,6.61
2023-03-26T00:11:29.428Z,6.46
2023-03-26T00:12:16.367Z,6.49
2023-03-26T00:13:04.127Z,6.43
2023-03-26T00:13:53.770Z,6.40
2023-03-26T00:14:41.142Z,6.22
2023-03-26T00:15:28.046Z,6.29
2023-03-26T00:16:18.470Z,6.26
2023-03-26T00:17:05.623Z,6.26
2023-03-26T00:17:54.435Z,6.24
2023-03-26T00:18:42.781Z,6.13
2023-03-26T00:19:30.374Z,6.07
2023-03-26T00:20:17.378Z,6.07
2023-03-26T00:21:06.045Z,6.05
2023-03-26T00:21:53.451Z,5.92
2023-03-26T00:22:41.789Z,5.76
2023-03-26T00:23:29.819Z,5.81
2023-03-26T00:24:17.635Z,5.89
2023-03-26T00:25:05.854Z,5.98
2023-03-26T00:25:54.732Z,5.99
2023-03-26T00:26:42.342Z,6.04
2023-03-26T00:27:29.435Z,5.91
2023-03-26T00:28:17.417Z,5.91
2023-03-26T00:29:04.607Z,5.92
2023-03-26T00:29:52.097Z,5.95
2023-03-26T00:30:41.984Z,5.97
2023-03-26T00:31:28.985Z,6.07
2023-03-26T00:32:17.035Z,6.11
2023-03-26T00:33:04.227Z,6.11
2023-03-26T00:33:54.529Z,6.21
2023-03-26T00:34:41.678Z,6.18
2023-03-26T00:35:30.122Z,6.19
2023-03-26T00:36:17.885Z,6.13
2023-03-26T00:37:05.281Z,6.06
2023-03-26T00:37:53.617Z,6.04
2023-03-26T00:38:41.659Z,6.02
2023-03-26T00:39:29.670Z,6.02
2023-03-26T00:40:16.630Z,6.07
2023-03-26T00:41:06.296Z,6.08
2023-03-26T00:41:54.790Z,5.99
2023-03-26T00:42:42.716Z,6.02
2023-03-26T00:43:33.027Z,6.00
2023-03-26T00:44:21.072Z,5.97
2023-03-26T00:45:08.429Z,5.92
2023-03-26T00:45:56.087Z,5.93
2023-03-26T00:46:43.131Z,5.94
2023-03-26T00:47:31.122Z,5.94
2023-03-26T00:48:18.836Z,5.92
2023-03-26T00:49:05.805Z,5.92
2023-03-26T00:49:52.710Z,5.91
2023-03-26T00:50:40.043Z,5.81
2023-03-26T00:51:28.393Z,5.83
2023-03-26T00:52:19.180Z,5.84
2023-03-26T00:53:06.065Z,5.84
2023-03-26T00:53:53.056Z,5.89
2023-03-26T00:54:40.430Z,5.92
2023-03-26T00:55:27.343Z,5.91
2023-03-26T00:56:14.553Z,5.87
2023-03-26T00:57:01.521Z,5.90
2023-03-26T00:57:48.501Z,5.95
2023-03-26T00:58:35.714Z,5.94
2023-03-26T00:59:23.443Z,5.89
2023-03-26T01:00:15.379Z,5.90
2023-03-26T01:01:08.270Z,5.85
2023-03-26T01:01:55.240Z,5.77
2023-03-26T01:02:45.351Z,5.75
2023-03-26T01:03:35.187Z,5.73
2023-03-26T01:04:31.070Z,5.72
2023-03-26T01:05:48.953Z,5.54
2023-03-26T01:06:38.134Z,5.57
2023-03-26T01:07:29.215Z,5.66
2023-03-26T01:08:18.933Z,5.57
2023-03-26T01:09:14.695Z,5.51
2023-03-26T01:10:02.070Z,5.63
2023-03-26T01:10:54.291Z,5.59
2023-03-26T01:11:41.370Z,5.51
2023-03-26T01:12:32.210Z,5.47
2023-03-26T01:13:24.030Z,5.52
2023-03-26T01:14:18.133Z,5.43
2023-03-26T01:15:05.688Z,5.36
2023-03-26T01:15:53.202Z,5.41
2023-03-26T01:16:45.288Z,5.40
2023-03-26T01:17:34.511Z,5.42
2023-03-26T01:18:26.526Z,5.33
2023-03-26T01:19:42.454Z,5.21
2023-03-26T01:20:30.645Z,5.11
2023-03-26T01:21:23.337Z,5.19
2023-03-26T01:22:14.940Z,5.19
2023-03-26T01:23:08.017Z,5.19
2023-03-26T01:24:02.781Z,5.09
2023-03-26T01:24:54.109Z,5.23
2023-03-26T01:25:45.588Z,5.17
2023-03-26T01:27:10.059Z,5.17
2023-03-26T01:27:57.273Z,5.08
2023-03-26T01:28:44.200Z,4.94
2023-03-26T01:29:44.389Z,4.99
2023-03-26T01:30:42.510Z,5.05
2023-03-26T01:31:37.223Z,5.09
2023-03-26T01:32:47.802Z,5.12
2023-03-26T01:33:46.165Z,5.17
2023-03-26T01:35:00.812Z,4.94
2023-03-26T01:35:54.384Z,5.03
2023-03-26T01:36:56.700Z,5.04
2023-03-26T01:37:58.887Z,5.00
2023-03-26T01:39:06.141Z,5.02
2023-03-26T01:39:58.501Z,4.74
2023-03-26T01:40:58.941Z,4.74
2023-03-26T01:41:49.410Z,4.77
2023-03-26T01:43:07.048Z,4.77
2023-03-26T01:44:19.560Z,4.66
2023-03-26T01:45:17.589Z,4.66
2023-03-26T01:46:07.547Z,4.64
2023-03-26T01:46:54.863Z,4.64
2023-03-26T01:47:42.608Z,4.60
2023-03-26T01:48:40.739Z,4.62
2023-03-26T01:49:31.659Z,4.59
2023-03-26T01:50:18.618Z,4.66
2023-03-26T01:51:07.295Z,4.68
2023-03-26T01:51:56.794Z,4.61
2023-03-26T01:52:43.741Z,4.68
2023-03-26T01:53:32.023Z,4.57
2023-03-26T01:54:21.382Z,4.56
2023-03-26T01:55:12.941Z,4.53
2023-03-26T01:56:11.077Z,4.50
2023-03-26T01:57:14.961Z,4.54
2023-03-26T01:58:17.400Z,4.60
2023-03-26T01:59:29.188Z,4.50
2023-03-26T02:00:16.563Z,4.43
2023-03-26T02:01:18.214Z,4.46
2023-03-26T02:02:12.071Z,4.36
2023-03-26T02:03:02.152Z,4.36
2023-03-26T02:03:59.802Z,4.42
2023-03-26T02:04:57.989Z,4.23
2023-03-26T02:05:55.088Z,4.29
2023-03-26T02:06:47.078Z,4.06
2023-03-26T02:07:44.868Z,3.96
2023-03-26T02:08:41.487Z,3.89
2023-03-26T02:09:32.341Z,4.01
2023-03-26T02:10:34.445Z,4.17
2023-03-26T02:11:23.228Z,3.91
2023-03-26T02:12:10.446Z,3.83
2023-03-26T02:12:58.318Z,3.85
2023-03-26T02:13:46.424Z,3.89
2023-03-26T02:14:33.438Z,3.99
2023-03-26T02:15:20.933Z,3.90
2023-03-26T02:16:10.113Z,3.86
2023-03-26T02:16:59.128Z,3.89
2023-03-26T02:17:47.186Z,3.91
2023-03-26T02:18:36.993Z,3.87
2023-03-26T02:19:24.833Z,3.85
2023-03-26T02:20:14.528Z,3.94
2023-03-26T02:21:02.091Z,3.93
2023-03-26T02:21:52.338Z,3.73
2023-03-26T02:22:41.194Z,3.63
2023-03-26T02:23:29.871Z,3.80
2023-03-26T02:24:17.266Z,3.81
2023-03-26T02:25:04.315Z,3.84
2023-03-26T02:25:51.280Z,3.80
2023-03-26T02:26:38.470Z,3.93
2023-03-26T02:27:25.408Z,3.81
2023-03-26T02:28:12.323Z,3.82
2023-03-26T02:28:59.853Z,3.87
2023-03-26T02:29:47.934Z,3.90
2023-03-26T02:30:34.980Z,3.89
2023-03-26T02:31:22.105Z,3.89
2023-03-26T02:32:13.463Z,3.84
2023-03-26T02:33:00.497Z,4.00
2023-03-26T02:33:47.858Z,3.96
2023-03-26T02:34:34.762Z,3.97
2023-03-26T02:35:22.266Z,3.83
2023-03-26T02:36:10.995Z,3.91
2023-03-26T02:36:58.364Z,3.94
2023-03-26T02:37:47.159Z,3.78
2023-03-26T02:38:35.429Z,3.85
2023-03-26T02:39:22.379Z,3.88
2023-03-26T02:40:11.956Z,3.79
2023-03-26T02:40:58.864Z,3.79
2023-03-26T02:41:45.769Z,3.78
2023-03-26T02:42:33.520Z,3.85
2023-03-26T02:43:20.836Z,3.89
2023-03-26T02:44:07.744Z,3.87
2023-03-26T02:44:54.655Z,4.00
2023-03-26T02:45:41.576Z,4.11
2023-03-26T02:46:28.603Z,4.04
2023-03-26T02:47:15.556Z,3.94
2023-03-26T02:48:02.703Z,3.91
2023-03-26T02:48:50.144Z,3.94
2023-03-26T02:49:37.054Z,3.99
2023-03-26T02:50:24.307Z,3.96
2023-03-26T02:51:11.213Z,3.86
2023-03-26T02:51:58.376Z,3.96
2023-03-26T02:52:45.621Z,3.92
2023-03-26T02:53:33.349Z,3.70
2023-03-26T02:54:20.713Z,3.78
2023-03-26T02:55:07.936Z,3.95
2023-03-26T02:55:55.012Z,3.89
2023-03-26T02:56:42.072Z,3.89
2023-03-26T02:57:29.273Z,3.88
2023-03-26T02:58:17.665Z,3.72
2023-03-26T02:59:04.658Z,3.79
2023-03-26T02:59:53.050Z,3.87
2023-03-26T03:00:40.352Z,3.92
2023-03-26T03:01:31.117Z,4.00
2023-03-26T03:02:18.538Z,4.00
2023-03-26T03:03:07.038Z,4.03
2023-03-26T03:03:54.454Z,4.09
2023-03-26T03:04:41.382Z,4.17
2023-03-26T03:05:29.073Z,4.17
2023-03-26T03:06:20.236Z,4.19
2023-03-26T03:07:07.954Z,4.21
2023-03-26T03:07:58.481Z,4.18
2023-03-26T03:08:49.092Z,4.10
2023-03-26T03:09:35.845Z,4.04
2023-03-26T03:10:23.351Z,4.00
2023-03-26T03:11:12.622Z,4.11
2023-03-26T03:12:07.657Z,4.09
2023-03-26T03:12:55.143Z,4.04
2023-03-26T03:13:42.843Z,4.00
2023-03-26T03:14:29.724Z,4.00
2023-03-26T03:15:16.645Z,4.21
2023-03-26T03:16:03.964Z,4.31
2023-03-26T03:16:50.971Z,4.32
2023-03-26T03:17:38.019Z,4.36
2023-03-26T03:18:43.449Z,4.42
2023-03-26T03:19:30.366Z,4.44
2023-03-26T03:20:17.990Z,4.42
2023-03-26T03:21:06.445Z,4.44
2023-03-26T03:21:53.406Z,4.30
2023-03-26T03:22:41.034Z,4.34
2023-03-26T03:23:27.975Z,4.45
2023-03-26T03:24:18.691Z,4.58
2023-03-26T03:25:09.225Z,4.56
2023-03-26T03:25:57.848Z,4.64
2023-03-26T03:26:46.048Z,4.67
2023-03-26T03:27:32.921Z,4.76
2023-03-26T03:28:20.321Z,4.86
2023-03-26T03:29:07.307Z,4.94
2023-03-26T03:29:56.017Z,4.97
2023-03-26T03:30:43.094Z,5.01
2023-03-26T03:31:30.076Z,5.08
2023-03-26T03:32:17.029Z,5.04
2023-03-26T03:33:04.254Z,4.99
2023-03-26T03:33:51.910Z,5.03
2023-03-26T03:34:39.105Z,5.15
2023-03-26T03:35:27.890Z,5.09
2023-03-26T03:36:20.095Z,5.17
2023-03-26T03:37:08.768Z,5.15
2023-03-26T03:37:57.058Z,5.07
2023-03-26T03:38:44.398Z,5.00
2023-03-26T03:39:31.419Z,5.08
2023-03-26T03:40:18.512Z,5.17
2023-03-26T03:41:05.959Z,5.06
2023-03-26T03:41:52.835Z,5.06
2023-03-26T03:42:39.811Z,5.02
2023-03-26T03:43:27.729Z,5.06
2023-03-26T03:44:14.608Z,5.02
2023-03-26T03:45:02.350Z,4.98
2023-03-26T03:45:49.277Z,4.97
2023-03-26T03:46:36.443Z,4.99
2023-03-26T03:47:23.401Z,4.85
2023-03-26T03:48:10.654Z,4.82
2023-03-26T03:48:57.643Z,4.88
2023-03-26T03:49:44.663Z,4.73
2023-03-26T03:50:34.294Z,4.79
2023-03-26T03:51:22.472Z,4.84
2023-03-26T03:52:09.338Z,4.83
2023-03-26T03:52:56.409Z,4.72
2023-03-26T03:53:43.335Z,4.74
2023-03-26T03:54:30.651Z,4.67
2023-03-26T03:55:17.558Z,4.81
2023-03-26T03:56:10.570Z,4.86
2023-03-26T03:56:57.676Z,4.80
2023-03-26T03:57:44.785Z,4.66
2023-03-26T03:58:31.776Z,4.72
2023-03-26T03:59:18.634Z,4.72
2023-03-26T04:00:08.320Z,4.79
2023-03-26T04:01:01.086Z,4.74
2023-03-26T04:01:48.735Z,4.75
2023-03-26T04:02:35.931Z,4.90
2023-03-26T04:03:33.370Z,4.71
2023-03-26T04:04:22.303Z,4.55
2023-03-26T04:05:11.791Z,4.64
2023-03-26T04:05:58.760Z,4.58
2023-03-26T04:06:45.759Z,4.74
2023-03-26T04:07:33.277Z,4.60
2023-03-26T04:08:20.439Z,4.53
2023-03-26T04:09:07.378Z,4.51
2023-03-26T04:09:54.553Z,4.46
2023-03-26T04:10:43.932Z,4.47
2023-03-26T04:11:31.018Z,4.62
2023-03-26T04:12:18.159Z,4.58
2023-03-26T04:13:05.041Z,4.61
2023-03-26T04:13:51.981Z,4.64
2023-03-26T04:14:39.018Z,4.70
2023-03-26T04:15:26.148Z,4.70
2023-03-26T04:16:13.029Z,4.63
2023-03-26T04:16:59.975Z,4.52
2023-03-26T04:17:47.038Z,4.61
2023-03-26T04:18:34.230Z,4.57
2023-03-26T04:19:21.582Z,4.69
2023-03-26T04:20:14.941Z,4.73
2023-03-26T04:21:02.691Z,4.65
2023-03-26T04:21:49.800Z,4.74
2023-03-26T04:22:36.776Z,4.86
2023-03-26T04:23:23.888Z,4.85
2023-03-26T04:24:11.255Z,4.96
2023-03-26T04:24:58.176Z,4.96
2023-03-26T04:25:48.623Z,5.10
2023-03-26T04:26:35.859Z,5.14
2023-03-26T04:27:27.479Z,5.24
2023-03-26T04:28:28.482Z,5.32
2023-03-26T04:29:17.362Z,5.36
2023-03-26T04:30:06.656Z,5.42
2023-03-26T04:30:54.848Z,5.42
2023-03-26T04:31:43.428Z,5.38
2023-03-26T04:32:34.480Z,5.44
2023-03-26T04:33:21.728Z,5.51
2023-03-26T04:34:18.901Z,5.49
2023-03-26T04:35:06.972Z,5.51
2023-03-26T04:35:54.727Z,5.41
2023-03-26T04:36:46.539Z,5.43
2023-03-26T04:37:41.846Z,5.50
2023-03-26T04:38:33.692Z,5.45
2023-03-26T04:39:29.468Z,5.46
2023-03-26T04:40:22.105Z,5.52
2023-03-26T04:41:13.775Z,5.42
2023-03-26T04:42:00.997Z,5.41
2023-03-26T04:42:48.066Z,5.42
2023-03-26T04:43:47.436Z,5.55
2023-03-26T04:44:35.137Z,5.65
2023-03-26T04:45:23.044Z,5.75
2023-03-26T04:46:10.725Z,5.75
2023-03-26T04:46:57.640Z,5.80
2023-03-26T04:47:46.843Z,5.79
2023-03-26T04:48:33.788Z,5.80
2023-03-26T04:49:20.881Z,5.82
2023-03-26T04:50:09.644Z,5.91
2023-03-26T04:50:56.908Z,5.92
2023-03-26T04:51:46.408Z,5.94
2023-03-26T04:52:33.763Z,5.95
2023-03-26T04:53:24.504Z,5.96
2023-03-26T04:54:12.938Z,6.07
2023-03-26T04:55:00.502Z,6.12
2023-03-26T04:56:08.689Z,6.06
2023-03-26T04:57:04.175Z,6.09
2023-03-26T04:57:55.249Z,6.11
2023-03-26T04:58:42.209Z,6.14
2023-03-26T04:59:35.201Z,6.20
2023-03-26T05:00:22.457Z,6.30
2023-03-26T05:01:11.369Z,6.37
2023-03-26T05:02:00.278Z,6.46
2023-03-26T05:02:50.645Z,6.51
2023-03-26T05:03:41.564Z,6.53
2023-03-26T05:04:32.256Z,6.55
2023-03-26T05:05:19.093Z,6.63
2023-03-26T05:06:06.240Z,6.58
2023-03-26T05:06:53.926Z,6.53
2023-03-26T05:07:42.367Z,6.64
2023-03-26T05:08:29.732Z,6.64
2023-03-26T05:09:16.750Z,6.63
2023-03-26T05:10:05.200Z,6.59
2023-03-26T05:10:52.084Z,6.58
2023-03-26T05:11:39.109Z,6.58
2023-03-26T05:12:26.006Z,6.43
2023-03-26T05:13:12.885Z,6.46
2023-03-26T05:13:59.838Z,6.46
2023-03-26T05:14:46.807Z,6.42
2023-03-26T05:15:33.725Z,6.53
2023-03-26T05:16:20.800Z,6.52
2023-03-26T05:17:11.042Z,6.46
2023-03-26T05:17:58.456Z,6.47
2023-03-26T05:18:46.915Z,6.45
2023-03-26T05:19:33.898Z,6.42
2023-03-26T05:20:24.196Z,6.33
2023-03-26T05:21:11.387Z,6.36
2023-03-26T05:21:58.424Z,6.38
2023-03-26T05:22:45.365Z,6.33
2023-03-26T05:23:32.265Z,6.48
2023-03-26T05:24:20.097Z,6.51
2023-03-26T05:25:07.810Z,6.50
2023-03-26T05:25:54.842Z,6.55
2023-03-26T05:26:41.729Z,6.68
2023-03-26T05:27:28.598Z,6.85
2023-03-26T05:28:15.638Z,6.92
2023-03-26T05:29:03.356Z,7.01
2023-03-26T05:29:50.533Z,7.08
2023-03-26T05:30:37.399Z,7.04
2023-03-26T05:31:25.396Z,6.88
2023-03-26T05:32:12.873Z,6.89
2023-03-26T05:32:59.906Z,7.04
2023-03-26T05:33:47.670Z,7.13
2023-03-26T05:34:34.656Z,7.16
2023-03-26T05:35:21.918Z,7.25
2023-03-26T05:36:13.667Z,7.23
2023-03-26T05:37:00.853Z,7.35
2023-03-26T05:37:49.791Z,7.40
2023-03-26T05:38:37.366Z,7.34
2023-03-26T05:39:26.588Z,7.14
2023-03-26T05:40:17.188Z,7.27
2023-03-26T05:41:04.926Z,7.42
2023-03-26T05:41:53.202Z,7.47
2023-03-26T05:42:40.826Z,7.38
2023-03-26T05:43:28.912Z,7.41
2023-03-26T05:44:15.867Z,7.52
2023-03-26T05:45:02.818Z,7.49
2023-03-26T05:45:49.749Z,7.53
2023-03-26T05:46:37.091Z,7.32
2023-03-26T05:47:24.013Z,7.32
2023-03-26T05:48:11.098Z,7.40
2023-03-26T05:48:58.049Z,7.52
2023-03-26T05:49:45.000Z,7.26
2023-03-26T05:50:31.926Z,7.17
2023-03-26T05:51:18.899Z,7.27
2023-03-26T05:52:06.862Z,7.47
2023-03-26T05:52:53.819Z,7.63
2023-03-26T05:53:40.834Z,7.50
2023-03-26T05:54:27.897Z,7.52
2023-03-26T05:55:14.859Z,7.59
2023-03-26T05:56:02.274Z,7.53
2023-03-26T05:56:49.371Z,7.59
2023-03-26T05:57:36.653Z,7.60
2023-03-26T05:58:34.133Z,7.50
2023-03-26T05:59:21.086Z,7.45
2023-03-26T06:00:12.269Z,7.43
2023-03-26T06:01:06.048Z,7.56
2023-03-26T06:01:54.769Z,7.55
2023-03-26T06:02:44.072Z,7.65
2023-03-26T06:03:31.873Z,7.64
2023-03-26T06:04:19.003Z,7.49
2023-03-26T06:05:06.326Z,7.48
2023-03-26T06:05:53.227Z,7.56
2023-03-26T06:06:40.247Z,7.55
2023-03-26T06:07:27.361Z,7.59
2023-03-26T06:08:14.361Z,7.65
2023-03-26T06:09:03.049Z,7.73
2023-03-26T06:09:49.976Z,7.77
2023-03-26T06:10:39.796Z,7.86
2023-03-26T06:11:26.848Z,7.76
2023-03-26T06:12:14.187Z,7.73
2023-03-26T06:13:01.153Z,7.70
2023-03-26T06:13:50.535Z,7.75
2023-03-26T06:14:37.866Z,7.80
2023-03-26T06:15:25.123Z,7.78
2023-03-26T06:16:26.398Z,7.89
2023-03-26T06:17:14.340Z,7.94
2023-03-26T06:18:01.575Z,7.97
2023-03-26T06:18:48.893Z,7.80
2023-03-26T06:19:43.694Z,7.66
2023-03-26T06:20:30.689Z,7.77
2023-03-26T06:21:18.565Z,7.82
2023-03-26T06:22:05.816Z,7.68
2023-03-26T06:22:52.681Z,7.67
2023-03-26T06:23:39.565Z,7.72
2023-03-26T06:24:26.597Z,7.81
2023-03-26T06:25:13.496Z,7.80
2023-03-26T06:26:00.374Z,7.81
2023-03-26T06:26:47.743Z,7.71
2023-03-26T06:27:35.640Z,7.78
2023-03-26T06:28:22.661Z,7.80
2023-03-26T06:29:09.609Z,7.75
2023-03-26T06:29:57.729Z,7.86
2023-03-26T06:30:44.944Z,8.00
2023-03-26T06:31:31.803Z,8.04
2023-03-26T06:32:20.617Z,8.04
2023-03-26T06:33:08.601Z,8.10
2023-03-26T06:33:55.449Z,8.04
2023-03-26T06:34:42.678Z,8.12
2023-03-26T06:35:30.867Z,7.95
2023-03-26T06:36:17.890Z,7.99
2023-03-26T06:37:08.568Z,8.04
2023-03-26T06:38:10.038Z,8.23
2023-03-26T06:38:57.007Z,8.33
2023-03-26T06:39:44.319Z,8.38
2023-03-26T06:40:31.191Z,8.44
2023-03-26T06:41:18.184Z,8.52
2023-03-26T06:42:05.266Z,8.52
2023-03-26T06:43:09.478Z,8.63
2023-03-26T06:43:57.377Z,8.71
2023-03-26T06:44:44.249Z,8.80
2023-03-26T06:45:33.144Z,8.89
2023-03-26T06:47:07.020Z,9.01
2023-03-26T06:47:53.831Z,9.05
2023-03-26T06:48:42.306Z,8.93
2023-03-26T06:49:29.322Z,8.81
2023-03-26T06:50:16.457Z,8.89
2023-03-26T06:51:03.619Z,8.96
2023-03-26T06:51:55.047Z,8.62
2023-03-26T06:52:47.641Z,8.60
2023-03-26T06:53:34.577Z,8.66
2023-03-26T06:54:21.481Z,8.50
2023-03-26T06:55:10.579Z,8.63
2023-03-26T06:55:57.425Z,8.83
2023-03-26T06:56:45.182Z,8.96
2023-03-26T06:57:32.252Z,9.02
2023-03-26T06:58:19.295Z,9.11
2023-03-26T06:59:06.397Z,9.20
2023-03-26T06:59:53.214Z,9.27
2023-03-26T07:00:40.751Z,9.24
2023-03-26T07:01:27.634Z,9.29
2023-03-26T07:02:14.517Z,9.40
2023-03-26T07:03:04.413Z,9.48
2023-03-26T07:03:51.534Z,9.55
2023-03-26T07:04:38.809Z,9.60
2023-03-26T07:05:25.649Z,9.55
2023-03-26T07:06:12.494Z,9.73
2023-03-26T07:06:59.531Z,9.94
2023-03-26T07:07:47.441Z,10.08
2023-03-26T07:08:34.473Z,10.22
2023-03-26T07:09:21.778Z,10.36
2023-03-26T07:10:09.410Z,10.57
2023-03-26T07:10:57.301Z,10.82
2023-03-26T07:11:44.488Z,10.90
2023-03-26T07:12:31.477Z,10.90
2023-03-26T07:13:18.297Z,11.01
2023-03-26T07:14:05.373Z,11.13
2023-03-26T07:14:52.381Z,11.22
2023-03-26T07:15:39.262Z,11.08
2023-03-26T07:16:26.222Z,11.24
2023-03-26T07:17:13.113Z,11.42
2023-03-26T07:18:00.937Z,11.49
2023-03-26T07:18:51.645Z,11.50
2023-03-26T07:19:41.532Z,11.57
2023-03-26T07:20:28.895Z,11.71
2023-03-26T07:21:15.962Z,11.79
2023-03-26T07:22:03.323Z,11.91
2023-03-26T07:22:50.682Z,11.97
2023-03-26T07:23:37.858Z,11.75
2023-03-26T07:24:25.367Z,11.78
2023-03-26T07:25:14.134Z,11.92
2023-03-26T07:26:03.133Z,11.95
2023-03-26T07:27:11.219Z,11.92
2023-03-26T07:28:20.784Z,11.97
2023-03-26T07:29:16.286Z,12.00
2023-03-26T07:30:09.991Z,11.71
2023-03-26T07:31:05.495Z,11.55
2023-03-26T07:32:04.283Z,11.34
2023-03-26T07:32:55.514Z,11.28
2023-03-26T07:34:04.210Z,11.31
2023-03-26T07:34:58.633Z,11.34
2023-03-26T07:35:51.062Z,11.33
2023-03-26T07:36:58.088Z,11.13
2023-03-26T07:37:56.329Z,11.10
2023-03-26T07:39:09.650Z,11.13
2023-03-26T07:40:03.932Z,11.22
2023-03-26T07:40:57.709Z,11.18
2023-03-26T07:42:04.976Z,11.12
2023-03-26T07:43:06.654Z,11.18
2023-03-26T07:44:25.559Z,11.28
2023-03-26T07:45:34.069Z,11.17
2023-03-26T07:46:27.850Z,11.24
2023-03-26T07:47:26.372Z,11.21
2023-03-26T07:48:18.048Z,11.19
2023-03-26T07:49:05.262Z,11.24
2023-03-26T07:49:57.887Z,11.27
2023-03-26T07:50:45.605Z,11.33
2023-03-26T07:51:33.169Z,11.35
2023-03-26T07:52:20.296Z,11.33
2023-03-26T07:53:07.776Z,11.48
2023-03-26T07:53:55.217Z,11.60
2023-03-26T07:54:42.327Z,11.76
2023-03-26T07:55:29.538Z,11.90
2023-03-26T07:56:19.878Z,11.95
2023-03-26T07:57:11.255Z,11.96
2023-03-26T07:58:27.238Z,11.94
2023-03-26T07:59:23.129Z,11.93
2023-03-26T08:00:14.407Z,11.95
2023-03-26T08:01:19.600Z,11.84
2023-03-26T08:02:16.584Z,12.13
2023-03-26T08:03:29.441Z,12.35
2023-03-26T08:04:44.358Z,12.18
2023-03-26T08:05:34.885Z,12.48
2023-03-26T08:06:37.541Z,12.73
2023-03-26T08:07:40.225Z,12.85
2023-03-26T08:08:34.076Z,12.99
2023-03-26T08:09:59.328Z,13.06
2023-03-26T08:11:04.359Z,13.05
2023-03-26T08:12:12.847Z,12.83
2023-03-26T08:13:19.525Z,13.01
2023-03-26T08:14:08.969Z,13.27
2023-03-26T08:15:01.255Z,13.31
2023-03-26T08:16:05.729Z,13.30
2023-03-26T08:17:36.966Z,13.24
2023-03-26T08:18:38.914Z,13.17
2023-03-26T08:19:31.914Z,13.17
2023-03-26T08:20:26.315Z,13.13
2023-03-26T08:21:25.716Z,13.18
2023-03-26T08:22:17.394Z,13.12
2023-03-26T08:23:23.896Z,13.08
2023-03-26T08:24:25.698Z,13.06
2023-03-26T08:25:37.372Z,13.01
2023-03-26T08:27:03.066Z,12.85
2023-03-26T08:27:59.052Z,12.75
2023-03-26T08:29:27.697Z,12.63
2023-03-26T08:30:19.804Z,12.44
2023-03-26T08:31:10.594Z,12.51
2023-03-26T08:31:57.788Z,12.10
2023-03-26T08:32:59.597Z,12.28
2023-03-26T08:33:46.597Z,12.26
2023-03-26T08:34:33.456Z,12.41
2023-03-26T08:35:20.398Z,12.50
2023-03-26T08:36:09.460Z,12.59
2023-03-26T08:36:56.334Z,12.73
2023-03-26T08:37:45.448Z,12.76
2023-03-26T08:38:32.508Z,12.86
2023-03-26T08:39:22.463Z,12.81
2023-03-26T08:40:09.886Z,12.87
2023-03-26T08:41:12.037Z,12.93
2023-03-26T08:42:17.377Z,13.04
2023-03-26T08:43:17.736Z,12.75
2023-03-26T08:44:22.643Z,12.87
2023-03-26T08:45:51.569Z,12.83
2023-03-26T08:47:10.474Z,12.79
2023-03-26T08:48:03.996Z,13.27
2023-03-26T08:49:25.910Z,13.47
2023-03-26T08:50:21.479Z,13.21
2023-03-26T08:51:23.195Z,13.56
2023-03-26T08:52:25.764Z,13.15
2023-03-26T08:53:50.050Z,13.43
2023-03-26T08:54:48.966Z,13.66
2023-03-26T08:55:44.265Z,13.95
2023-03-26T08:56:59.447Z,14.01
2023-03-26T08:58:09.197Z,13.96
2023-03-26T08:59:43.603Z,14.18
2023-03-26T09:00:52.347Z,14.43
2023-03-26T09:01:54.012Z,14.45
2023-03-26T09:03:01.755Z,14.40
2023-03-26T09:03:48.637Z,14.36
2023-03-26T09:05:05.965Z,14.28
2023-03-26T09:06:24.826Z,14.43
2023-03-26T09:07:48.274Z,14.48
2023-03-26T09:09:08.895Z,14.43
2023-03-26T09:10:09.617Z,14.28
2023-03-26T09:11:17.395Z,14.09
2023-03-26T09:12:35.477Z,14.28
2023-03-26T09:13:41.061Z,14.42
2023-03-26T09:15:06.586Z,14.48
2023-03-26T09:16:06.624Z,14.45
2023-03-26T09:17:22.643Z,14.55
2023-03-26T09:18:21.371Z,14.48
2023-03-26T09:19:23.467Z,14.41
2023-03-26T09:20:27.080Z,14.28
2023-03-26T09:21:47.822Z,14.19
2023-03-26T09:22:41.107Z,14.23
2023-03-26T09:23:52.863Z,14.12
2023-03-26T09:25:16.976Z,14.55
2023-03-26T09:26:19.165Z,14.68
2023-03-26T09:27:09.464Z,14.67
2023-03-26T09:28:02.509Z,14.83
2023-03-26T09:29:22.308Z,14.89
2023-03-26T09:30:31.849Z,14.95
2023-03-26T09:32:06.208Z,15.12
2023-03-26T09:33:17.158Z,15.18
2023-03-26T09:34:15.720Z,14.93
2023-03-26T09:35:14.747Z,14.78
2023-03-26T09:36:34.545Z,14.80
2023-03-26T09:37:56.257Z,14.85
2023-03-26T09:38:52.971Z,14.52
2023-03-26T09:39:53.869Z,14.82
2023-03-26T09:41:06.739Z,14.97
2023-03-26T09:42:05.809Z,15.23
2023-03-26T09:42:55.620Z,15.19
2023-03-26T09:44:12.937Z,15.03
2023-03-26T09:45:22.887Z,14.97
2023-03-26T09:46:41.459Z,14.64
2023-03-26T09:47:45.976Z,14.72
2023-03-26T09:48:33.233Z,14.81
2023-03-26T09:49:49.968Z,14.84
2023-03-26T09:50:59.964Z,14.77
2023-03-26T09:52:01.212Z,14.62
2023-03-26T09:52:50.741Z,14.52
2023-03-26T09:53:56.367Z,14.62
2023-03-26T09:55:28.626Z,14.56
2023-03-26T09:56:32.401Z,14.50
2023-03-26T09:57:40.924Z,14.82
2023-03-26T09:58:46.309Z,15.02
2023-03-26T10:00:03.368Z,15.09
2023-03-26T10:01:01.291Z,14.97
2023-03-26T10:02:08.766Z,14.95
2023-03-26T10:03:07.850Z,14.80
2023-03-26T10:04:33.593Z,14.96
2023-03-26T10:05:30.540Z,15.08
2023-03-26T10:06:36.935Z,15.18
2023-03-26T10:07:53.961Z,15.44
2023-03-26T10:09:22.219Z,15.59
2023-03-26T10:10:18.660Z,15.69
2023-03-26T10:11:16.580Z,15.64
2023-03-26T10:12:15.188Z,15.82
2023-03-26T10:13:14.782Z,15.96
2023-03-26T10:14:21.080Z,15.79
2023-03-26T10:15:32.159Z,15.87
2023-03-26T10:16:25.147Z,15.93
2023-03-26T10:17:39.966Z,15.97
2023-03-26T10:18:49.932Z,16.00
2023-03-26T10:20:09.943Z,15.83
2023-03-26T10:21:19.485Z,15.67
2023-03-26T10:22:35.012Z,15.43
2023-03-26T10:23:43.737Z,15.52
2023-03-26T10:24:39.648Z,15.62
2023-03-26T10:26:07.318Z,15.70
2023-03-26T10:27:09.019Z,15.71
2023-03-26T10:28:25.738Z,15.79
2023-03-26T10:29:53.439Z,15.78
2023-03-26T10:31:06.689Z,15.77
2023-03-26T10:32:21.381Z,15.55
2023-03-26T10:33:24.989Z,15.81
2023-03-26T10:34:19.417Z,15.62
2023-03-26T10:35:34.537Z,15.74
2023-03-26T10:36:30.010Z,15.84
2023-03-26T10:37:35.728Z,15.78
2023-03-26T10:38:36.456Z,15.78
2023-03-26T10:39:36.809Z,15.95
2023-03-26T10:40:43.489Z,15.97
2023-03-26T10:41:54.811Z,16.16
2023-03-26T10:42:44.665Z,16.15
2023-03-26T10:44:09.933Z,16.30
2023-03-26T10:45:22.189Z,16.51
2023-03-26T10:46:31.581Z,16.46
2023-03-26T10:47:54.348Z,16.38
2023-03-26T10:49:09.364Z,16.44
2023-03-26T10:50:16.947Z,16.48
2023-03-26T10:52:08.665Z,16.59
2023-03-26T10:53:14.215Z,16.42
2023-03-26T10:54:07.016Z,16.39
2023-03-26T10:55:25.339Z,16.48
2023-03-26T10:56:15.953Z,16.62
2023-03-26T10:57:18.580Z,16.66
2023-03-26T10:58:24.977Z,16.50
2023-03-26T10:59:16.578Z,16.67
2023-03-26T11:00:27.577Z,16.66
2023-03-26T11:01:33.171Z,16.68
2023-03-26T11:03:01.030Z,16.73
2023-03-26T11:03:54.448Z,16.76
2023-03-26T11:05:30.703Z,16.63
2023-03-26T11:06:45.948Z,16.56
2023-03-26T11:07:52.068Z,16.56
2023-03-26T11:08:52.278Z,16.49
2023-03-26T11:09:53.114Z,16.44
2023-03-26T11:10:52.310Z,16.45
2023-03-26T11:11:56.775Z,16.39
2023-03-26T11:13:32.255Z,16.46
2023-03-26T11:14:41.710Z,16.54
2023-03-26T11:15:32.601Z,16.56
2023-03-26T11:16:29.974Z,16.49
2023-03-26T11:17:40.883Z,16.52
2023-03-26T11:19:09.922Z,16.55
2023-03-26T11:20:05.994Z,16.50
2023-03-26T11:21:19.403Z,16.58
2023-03-26T11:22:23.110Z,16.52
2023-03-26T11:23:23.227Z,16.53
2023-03-26T11:24:28.448Z,16.66
2023-03-26T11:25:42.627Z,16.71
2023-03-26T11:26:50.016Z,16.50
2023-03-26T11:27:40.225Z,16.62
2023-03-26T11:29:03.425Z,16.71
2023-03-26T11:30:06.600Z,16.72
2023-03-26T11:31:19.119Z,16.58
2023-03-26T11:32:16.024Z,16.60
2023-03-26T11:33:07.030Z,16.68
2023-03-26T11:33:57.620Z,16.79
2023-03-26T11:35:06.062Z,16.91
2023-03-26T11:35:56.668Z,16.92
2023-03-26T11:36:45.664Z,16.95
2023-03-26T11:37:44.448Z,17.03
2023-03-26T11:38:38.688Z,17.07
2023-03-26T11:39:30.834Z,17.16
2023-03-26T11:40:35.952Z,17.15
2023-03-26T11:41:25.585Z,16.91
2023-03-26T11:42:15.450Z,16.87
2023-03-26T11:43:05.321Z,16.82
2023-03-26T11:44:07.488Z,16.71
2023-03-26T11:45:00.351Z,16.78
2023-03-26T11:45:49.774Z,16.68
2023-03-26T11:46:40.630Z,16.68
2023-03-26T11:47:45.158Z,16.69
2023-03-26T11:48:51.688Z,16.73
2023-03-26T11:49:43.725Z,16.69
2023-03-26T11:50:33.327Z,16.54